sensor_id;sensor_type;location;lat;lon;timestamp;pressure;altitude;pressure_sealevel;temperature
71463;BMP180;59266;52.608;13.260;2023-07-08T00:01:19;101757.00;;;15.50
71463;BMP180;59266;52.608;13.260;2023-07-08T00:03:46;101752.00;;;15.40
71463;BMP180;59266;52.608;13.260;2023-07-08T00:06:17;101755.00;;;15.40
71463;BMP180;59266;52.608;13.260;2023-07-08T00:08:45;101757.00;;;15.40
71463;BMP180;59266;52.608;13.260;2023-07-08T00:11:13;101753.00;;;15.30
71463;BMP180;59266;52.608;13.260;2023-07-08T00:13:40;101754.00;;;15.30
71463;BMP180;59266;52.608;13.260;2023-07-08T00:16:12;101756.00;;;15.30
71463;BMP180;59266;52.608;13.260;2023-07-08T00:18:38;101750.00;;;15.20
71463;BMP180;59266;52.608;13.260;2023-07-08T00:21:12;101749.00;;;15.20
71463;BMP180;59266;52.608;13.260;2023-07-08T00:23:50;101749.00;;;15.10
71463;BMP180;59266;52.608;13.260;2023-07-08T00:26:18;101738.00;;;15.10
71463;BMP180;59266;52.608;13.260;2023-07-08T00:28:47;101740.00;;;15.00
71463;BMP180;59266;52.608;13.260;2023-07-08T00:31:14;101745.00;;;15.00
71463;BMP180;59266;52.608;13.260;2023-07-08T00:33:42;101737.00;;;14.80
71463;BMP180;59266;52.608;13.260;2023-07-08T00:36:14;101740.00;;;14.90
71463;BMP180;59266;52.608;13.260;2023-07-08T00:38:41;101735.00;;;14.90
71463;BMP180;59266;52.608;13.260;2023-07-08T00:41:20;101738.00;;;14.80
71463;BMP180;59266;52.608;13.260;2023-07-08T00:43:50;101740.00;;;14.80
71463;BMP180;59266;52.608;13.260;2023-07-08T00:46:34;101741.00;;;14.70
71463;BMP180;59266;52.608;13.260;2023-07-08T00:51:38;101744.00;;;14.80
71463;BMP180;59266;52.608;13.260;2023-07-08T00:54:16;101748.00;;;14.70
71463;BMP180;59266;52.608;13.260;2023-07-08T00:56:52;101736.00;;;14.70
71463;BMP180;59266;52.608;13.260;2023-07-08T00:59:27;101737.00;;;14.60
71463;BMP180;59266;52.608;13.260;2023-07-08T01:01:57;101745.00;;;14.50
71463;BMP180;59266;52.608;13.260;2023-07-08T01:04:31;101751.00;;;14.50
71463;BMP180;59266;52.608;13.260;2023-07-08T01:06:59;101747.00;;;14.50
71463;BMP180;59266;52.608;13.260;2023-07-08T01:09:30;101751.00;;;14.40
71463;BMP180;59266;52.608;13.260;2023-07-08T01:12:01;101748.00;;;14.30
71463;BMP180;59266;52.608;13.260;2023-07-08T01:14:36;101746.00;;;14.40
71463;BMP180;59266;52.608;13.260;2023-07-08T01:17:04;101745.00;;;14.40
71463;BMP180;59266;52.608;13.260;2023-07-08T01:19:32;101740.00;;;14.30
71463;BMP180;59266;52.608;13.260;2023-07-08T01:22:03;101738.00;;;14.40
71463;BMP180;59266;52.608;13.260;2023-07-08T01:24:34;101733.00;;;14.30
71463;BMP180;59266;52.608;13.260;2023-07-08T01:27:03;101733.00;;;14.30
71463;BMP180;59266;52.608;13.260;2023-07-08T01:29:31;101743.00;;;14.30
71463;BMP180;59266;52.608;13.260;2023-07-08T01:31:59;101733.00;;;14.30
71463;BMP180;59266;52.608;13.260;2023-07-08T01:34:31;101736.00;;;14.30
71463;BMP180;59266;52.608;13.260;2023-07-08T01:37:01;101733.00;;;14.20
71463;BMP180;59266;52.608;13.260;2023-07-08T01:39:32;101730.00;;;14.30
71463;BMP180;59266;52.608;13.260;2023-07-08T01:42:01;101722.00;;;14.20
71463;BMP180;59266;52.608;13.260;2023-07-08T01:46:57;101714.00;;;14.20
71463;BMP180;59266;52.608;13.260;2023-07-08T01:49:25;101717.00;;;14.30
71463;BMP180;59266;52.608;13.260;2023-07-08T01:51:53;101715.00;;;14.20
71463;BMP180;59266;52.608;13.260;2023-07-08T01:54:21;101708.00;;;14.20
71463;BMP180;59266;52.608;13.260;2023-07-08T01:56:54;101711.00;;;14.00
71463;BMP180;59266;52.608;13.260;2023-07-08T01:59:23;101713.00;;;14.10
71463;BMP180;59266;52.608;13.260;2023-07-08T02:01:51;101706.00;;;13.90
71463;BMP180;59266;52.608;13.260;2023-07-08T02:04:22;101709.00;;;14.10
71463;BMP180;59266;52.608;13.260;2023-07-08T02:06:54;101715.00;;;14.00
71463;BMP180;59266;52.608;13.260;2023-07-08T02:09:23;101719.00;;;14.00
71463;BMP180;59266;52.608;13.260;2023-07-08T02:11:52;101715.00;;;14.10
71463;BMP180;59266;52.608;13.260;2023-07-08T02:14:19;101717.00;;;14.00
71463;BMP180;59266;52.608;13.260;2023-07-08T02:16:49;101721.00;;;14.00
71463;BMP180;59266;52.608;13.260;2023-07-08T02:19:17;101718.00;;;14.00
71463;BMP180;59266;52.608;13.260;2023-07-08T02:21:44;101722.00;;;14.00
71463;BMP180;59266;52.608;13.260;2023-07-08T02:24:11;101720.00;;;14.00
71463;BMP180;59266;52.608;13.260;2023-07-08T02:26:38;101714.00;;;13.90
71463;BMP180;59266;52.608;13.260;2023-07-08T02:29:04;101718.00;;;14.00
71463;BMP180;59266;52.608;13.260;2023-07-08T02:31:32;101717.00;;;13.80
71463;BMP180;59266;52.608;13.260;2023-07-08T02:33:59;101716.00;;;13.80
71463;BMP180;59266;52.608;13.260;2023-07-08T02:36:30;101714.00;;;13.80
71463;BMP180;59266;52.608;13.260;2023-07-08T02:38:57;101710.00;;;13.80
71463;BMP180;59266;52.608;13.260;2023-07-08T02:41:24;101714.00;;;13.80
71463;BMP180;59266;52.608;13.260;2023-07-08T02:43:50;101713.00;;;13.80
71463;BMP180;59266;52.608;13.260;2023-07-08T02:46:17;101718.00;;;13.80
71463;BMP180;59266;52.608;13.260;2023-07-08T02:48:44;101718.00;;;13.80
71463;BMP180;59266;52.608;13.260;2023-07-08T02:51:11;101712.00;;;13.80
71463;BMP180;59266;52.608;13.260;2023-07-08T02:53:40;101708.00;;;13.70
71463;BMP180;59266;52.608;13.260;2023-07-08T02:56:07;101708.00;;;13.70
71463;BMP180;59266;52.608;13.260;2023-07-08T02:58:33;101705.00;;;13.70
71463;BMP180;59266;52.608;13.260;2023-07-08T03:01:02;101717.00;;;13.60
71463;BMP180;59266;52.608;13.260;2023-07-08T03:03:31;101715.00;;;13.60
71463;BMP180;59266;52.608;13.260;2023-07-08T03:06:01;101719.00;;;13.60
71463;BMP180;59266;52.608;13.260;2023-07-08T03:08:30;101718.00;;;13.60
71463;BMP180;59266;52.608;13.260;2023-07-08T03:10:59;101713.00;;;13.60
71463;BMP180;59266;52.608;13.260;2023-07-08T03:13:27;101712.00;;;13.70
71463;BMP180;59266;52.608;13.260;2023-07-08T03:15:55;101703.00;;;13.70
71463;BMP180;59266;52.608;13.260;2023-07-08T03:18:23;101703.00;;;13.60
71463;BMP180;59266;52.608;13.260;2023-07-08T03:20:53;101711.00;;;13.60
71463;BMP180;59266;52.608;13.260;2023-07-08T03:23:23;101712.00;;;13.50
71463;BMP180;59266;52.608;13.260;2023-07-08T03:25:51;101701.00;;;13.60
71463;BMP180;59266;52.608;13.260;2023-07-08T03:28:20;101707.00;;;13.50
71463;BMP180;59266;52.608;13.260;2023-07-08T03:30:52;101711.00;;;13.50
71463;BMP180;59266;52.608;13.260;2023-07-08T03:33:19;101699.00;;;13.50
71463;BMP180;59266;52.608;13.260;2023-07-08T03:35:47;101697.00;;;13.50
71463;BMP180;59266;52.608;13.260;2023-07-08T03:38:14;101698.00;;;13.50
71463;BMP180;59266;52.608;13.260;2023-07-08T03:40:44;101698.00;;;13.50
71463;BMP180;59266;52.608;13.260;2023-07-08T03:43:13;101688.00;;;13.60
71463;BMP180;59266;52.608;13.260;2023-07-08T03:45:40;101697.00;;;13.60
71463;BMP180;59266;52.608;13.260;2023-07-08T03:48:10;101691.00;;;13.60
71463;BMP180;59266;52.608;13.260;2023-07-08T03:50:37;101696.00;;;13.40
71463;BMP180;59266;52.608;13.260;2023-07-08T03:53:04;101699.00;;;13.50
71463;BMP180;59266;52.608;13.260;2023-07-08T03:55:31;101692.00;;;13.50
71463;BMP180;59266;52.608;13.260;2023-07-08T03:57:59;101699.00;;;13.60
71463;BMP180;59266;52.608;13.260;2023-07-08T04:00:26;101703.00;;;13.50
71463;BMP180;59266;52.608;13.260;2023-07-08T04:02:53;101699.00;;;13.40
71463;BMP180;59266;52.608;13.260;2023-07-08T04:05:21;101699.00;;;13.40
71463;BMP180;59266;52.608;13.260;2023-07-08T04:07:48;101697.00;;;13.50
71463;BMP180;59266;52.608;13.260;2023-07-08T04:10:17;101699.00;;;13.50
71463;BMP180;59266;52.608;13.260;2023-07-08T04:12:44;101698.00;;;13.60
71463;BMP180;59266;52.608;13.260;2023-07-08T04:15:11;101704.00;;;13.80
71463;BMP180;59266;52.608;13.260;2023-07-08T04:17:43;101701.00;;;13.90
71463;BMP180;59266;52.608;13.260;2023-07-08T04:20:14;101701.00;;;13.90
71463;BMP180;59266;52.608;13.260;2023-07-08T04:22:41;101696.00;;;14.00
71463;BMP180;59266;52.608;13.260;2023-07-08T04:25:08;101700.00;;;14.10
71463;BMP180;59266;52.608;13.260;2023-07-08T04:27:38;101696.00;;;14.10
71463;BMP180;59266;52.608;13.260;2023-07-08T04:30:14;101685.00;;;14.10
71463;BMP180;59266;52.608;13.260;2023-07-08T04:32:45;101687.00;;;14.30
71463;BMP180;59266;52.608;13.260;2023-07-08T04:35:12;101688.00;;;14.20
71463;BMP180;59266;52.608;13.260;2023-07-08T04:37:39;101694.00;;;14.30
71463;BMP180;59266;52.608;13.260;2023-07-08T04:40:16;101702.00;;;14.40
71463;BMP180;59266;52.608;13.260;2023-07-08T04:42:46;101698.00;;;14.50
71463;BMP180;59266;52.608;13.260;2023-07-08T04:45:15;101703.00;;;14.70
71463;BMP180;59266;52.608;13.260;2023-07-08T04:47:43;101698.00;;;14.70
71463;BMP180;59266;52.608;13.260;2023-07-08T04:50:13;101708.00;;;14.80
71463;BMP180;59266;52.608;13.260;2023-07-08T04:52:40;101707.00;;;14.80
71463;BMP180;59266;52.608;13.260;2023-07-08T04:55:07;101709.00;;;14.70
71463;BMP180;59266;52.608;13.260;2023-07-08T04:57:36;101705.00;;;14.90
71463;BMP180;59266;52.608;13.260;2023-07-08T05:00:04;101704.00;;;15.00
71463;BMP180;59266;52.608;13.260;2023-07-08T05:02:36;101704.00;;;15.10
71463;BMP180;59266;52.608;13.260;2023-07-08T05:05:05;101701.00;;;15.20
71463;BMP180;59266;52.608;13.260;2023-07-08T05:07:34;101701.00;;;15.20
71463;BMP180;59266;52.608;13.260;2023-07-08T05:10:01;101705.00;;;15.20
71463;BMP180;59266;52.608;13.260;2023-07-08T05:12:28;101697.00;;;15.30
71463;BMP180;59266;52.608;13.260;2023-07-08T05:14:54;101705.00;;;15.40
71463;BMP180;59266;52.608;13.260;2023-07-08T05:17:22;101701.00;;;15.70
71463;BMP180;59266;52.608;13.260;2023-07-08T05:19:51;101703.00;;;15.70
71463;BMP180;59266;52.608;13.260;2023-07-08T05:22:22;101704.00;;;15.60
71463;BMP180;59266;52.608;13.260;2023-07-08T05:24:53;101696.00;;;15.70
71463;BMP180;59266;52.608;13.260;2023-07-08T05:27:23;101700.00;;;15.90
71463;BMP180;59266;52.608;13.260;2023-07-08T05:29:50;101695.00;;;16.10
71463;BMP180;59266;52.608;13.260;2023-07-08T05:32:18;101700.00;;;16.10
71463;BMP180;59266;52.608;13.260;2023-07-08T05:34:46;101705.00;;;16.20
71463;BMP180;59266;52.608;13.260;2023-07-08T05:37:16;101709.00;;;16.20
71463;BMP180;59266;52.608;13.260;2023-07-08T05:39:45;101704.00;;;16.30
71463;BMP180;59266;52.608;13.260;2023-07-08T05:42:12;101711.00;;;16.50
71463;BMP180;59266;52.608;13.260;2023-07-08T05:44:39;101703.00;;;16.90
71463;BMP180;59266;52.608;13.260;2023-07-08T05:47:08;101699.00;;;16.70
71463;BMP180;59266;52.608;13.260;2023-07-08T05:49:34;101711.00;;;16.90
71463;BMP180;59266;52.608;13.260;2023-07-08T05:52:02;101709.00;;;17.30
71463;BMP180;59266;52.608;13.260;2023-07-08T05:54:35;101706.00;;;17.50
71463;BMP180;59266;52.608;13.260;2023-07-08T05:57:03;101696.00;;;18.00
71463;BMP180;59266;52.608;13.260;2023-07-08T05:59:30;101694.00;;;19.60
71463;BMP180;59266;52.608;13.260;2023-07-08T06:01:59;101700.00;;;22.00
71463;BMP180;59266;52.608;13.260;2023-07-08T06:04:38;101708.00;;;23.90
71463;BMP180;59266;52.608;13.260;2023-07-08T06:07:05;101696.00;;;26.00
71463;BMP180;59266;52.608;13.260;2023-07-08T06:09:31;101710.00;;;27.10
71463;BMP180;59266;52.608;13.260;2023-07-08T06:11:59;101716.00;;;28.50
71463;BMP180;59266;52.608;13.260;2023-07-08T06:14:27;101713.00;;;29.20
71463;BMP180;59266;52.608;13.260;2023-07-08T06:16:53;101716.00;;;31.00
71463;BMP180;59266;52.608;13.260;2023-07-08T06:19:22;101719.00;;;30.60
71463;BMP180;59266;52.608;13.260;2023-07-08T06:21:49;101716.00;;;33.20
71463;BMP180;59266;52.608;13.260;2023-07-08T06:24:16;101727.00;;;33.00
71463;BMP180;59266;52.608;13.260;2023-07-08T06:26:44;101723.00;;;33.90
71463;BMP180;59266;52.608;13.260;2023-07-08T06:29:23;101728.00;;;33.90
71463;BMP180;59266;52.608;13.260;2023-07-08T06:31:51;101728.00;;;35.40
71463;BMP180;59266;52.608;13.260;2023-07-08T06:34:18;101732.00;;;35.20
71463;BMP180;59266;52.608;13.260;2023-07-08T06:36:45;101728.00;;;35.60
71463;BMP180;59266;52.608;13.260;2023-07-08T06:39:12;101731.00;;;36.00
71463;BMP180;59266;52.608;13.260;2023-07-08T06:41:39;101728.00;;;34.80
71463;BMP180;59266;52.608;13.260;2023-07-08T06:44:05;101725.00;;;36.90
71463;BMP180;59266;52.608;13.260;2023-07-08T06:46:32;101724.00;;;36.50
71463;BMP180;59266;52.608;13.260;2023-07-08T06:48:59;101724.00;;;37.90
71463;BMP180;59266;52.608;13.260;2023-07-08T06:51:27;101731.00;;;38.30
71463;BMP180;59266;52.608;13.260;2023-07-08T06:53:54;101728.00;;;37.60
71463;BMP180;59266;52.608;13.260;2023-07-08T06:56:23;101725.00;;;37.60
71463;BMP180;59266;52.608;13.260;2023-07-08T06:58:50;101730.00;;;39.80
71463;BMP180;59266;52.608;13.260;2023-07-08T07:01:17;101733.00;;;37.40
71463;BMP180;59266;52.608;13.260;2023-07-08T07:03:45;101731.00;;;40.60
71463;BMP180;59266;52.608;13.260;2023-07-08T07:06:11;101738.00;;;39.40
71463;BMP180;59266;52.608;13.260;2023-07-08T07:08:38;101732.00;;;39.70
71463;BMP180;59266;52.608;13.260;2023-07-08T07:11:08;101739.00;;;39.90
71463;BMP180;59266;52.608;13.260;2023-07-08T07:13:36;101736.00;;;41.30
71463;BMP180;59266;52.608;13.260;2023-07-08T07:16:04;101731.00;;;39.20
71463;BMP180;59266;52.608;13.260;2023-07-08T07:18:30;101735.00;;;41.70
71463;BMP180;59266;52.608;13.260;2023-07-08T07:20:58;101739.00;;;41.50
71463;BMP180;59266;52.608;13.260;2023-07-08T07:23:25;101735.00;;;42.40
71463;BMP180;59266;52.608;13.260;2023-07-08T07:25:54;101735.00;;;41.90
71463;BMP180;59266;52.608;13.260;2023-07-08T07:28:21;101739.00;;;42.90
71463;BMP180;59266;52.608;13.260;2023-07-08T07:31:00;101742.00;;;42.80
71463;BMP180;59266;52.608;13.260;2023-07-08T07:33:28;101737.00;;;43.20
71463;BMP180;59266;52.608;13.260;2023-07-08T07:35:55;101734.00;;;41.90
71463;BMP180;59266;52.608;13.260;2023-07-08T07:38:24;101733.00;;;39.40
71463;BMP180;59266;52.608;13.260;2023-07-08T07:40:55;101728.00;;;40.70
71463;BMP180;59266;52.608;13.260;2023-07-08T07:43:22;101733.00;;;41.90
71463;BMP180;59266;52.608;13.260;2023-07-08T07:45:52;101729.00;;;43.10
71463;BMP180;59266;52.608;13.260;2023-07-08T07:48:19;101737.00;;;43.40
71463;BMP180;59266;52.608;13.260;2023-07-08T07:50:46;101737.00;;;43.10
71463;BMP180;59266;52.608;13.260;2023-07-08T07:53:13;101741.00;;;41.90
71463;BMP180;59266;52.608;13.260;2023-07-08T07:55:40;101743.00;;;41.50
71463;BMP180;59266;52.608;13.260;2023-07-08T07:58:07;101729.00;;;41.90
71463;BMP180;59266;52.608;13.260;2023-07-08T08:00:34;101744.00;;;41.00
71463;BMP180;59266;52.608;13.260;2023-07-08T08:03:01;101732.00;;;41.50
71463;BMP180;59266;52.608;13.260;2023-07-08T08:05:28;101729.00;;;44.40
71463;BMP180;59266;52.608;13.260;2023-07-08T08:07:54;101731.00;;;42.10
71463;BMP180;59266;52.608;13.260;2023-07-08T08:10:21;101732.00;;;43.30
71463;BMP180;59266;52.608;13.260;2023-07-08T08:12:48;101739.00;;;44.30
71463;BMP180;59266;52.608;13.260;2023-07-08T08:15:23;101735.00;;;44.70
71463;BMP180;59266;52.608;13.260;2023-07-08T08:17:51;101728.00;;;45.70
71463;BMP180;59266;52.608;13.260;2023-07-08T08:20:20;101736.00;;;43.20
71463;BMP180;59266;52.608;13.260;2023-07-08T08:22:50;101731.00;;;45.00
71463;BMP180;59266;52.608;13.260;2023-07-08T08:25:19;101730.00;;;42.80
71463;BMP180;59266;52.608;13.260;2023-07-08T08:27:46;101737.00;;;45.50
71463;BMP180;59266;52.608;13.260;2023-07-08T08:30:14;101738.00;;;43.20
71463;BMP180;59266;52.608;13.260;2023-07-08T08:32:42;101734.00;;;45.10
71463;BMP180;59266;52.608;13.260;2023-07-08T08:35:08;101735.00;;;44.10
71463;BMP180;59266;52.608;13.260;2023-07-08T08:37:39;101732.00;;;42.80
71463;BMP180;59266;52.608;13.260;2023-07-08T08:40:07;101738.00;;;44.50
71463;BMP180;59266;52.608;13.260;2023-07-08T08:42:44;101740.00;;;45.00
71463;BMP180;59266;52.608;13.260;2023-07-08T08:45:17;101735.00;;;44.60
71463;BMP180;59266;52.608;13.260;2023-07-08T08:47:50;101735.00;;;42.50
71463;BMP180;59266;52.608;13.260;2023-07-08T08:50:38;101738.00;;;45.00
71463;BMP180;59266;52.608;13.260;2023-07-08T08:53:11;101733.00;;;44.70
71463;BMP180;59266;52.608;13.260;2023-07-08T08:55:40;101732.00;;;43.40
71463;BMP180;59266;52.608;13.260;2023-07-08T08:58:17;101728.00;;;42.60
71463;BMP180;59266;52.608;13.260;2023-07-08T09:01:01;101721.00;;;44.10
71463;BMP180;59266;52.608;13.260;2023-07-08T09:03:36;101733.00;;;44.00
71463;BMP180;59266;52.608;13.260;2023-07-08T09:06:17;101729.00;;;43.70
71463;BMP180;59266;52.608;13.260;2023-07-08T09:08:45;101731.00;;;43.90
71463;BMP180;59266;52.608;13.260;2023-07-08T09:11:36;101723.00;;;42.40
71463;BMP180;59266;52.608;13.260;2023-07-08T09:14:14;101732.00;;;43.70
71463;BMP180;59266;52.608;13.260;2023-07-08T09:16:53;101720.00;;;40.90
71463;BMP180;59266;52.608;13.260;2023-07-08T09:19:26;101720.00;;;42.90
71463;BMP180;59266;52.608;13.260;2023-07-08T09:24:49;101726.00;;;43.10
71463;BMP180;59266;52.608;13.260;2023-07-08T09:27:17;101719.00;;;42.70
71463;BMP180;59266;52.608;13.260;2023-07-08T09:29:44;101719.00;;;42.40
71463;BMP180;59266;52.608;13.260;2023-07-08T09:32:21;101716.00;;;42.00
71463;BMP180;59266;52.608;13.260;2023-07-08T09:34:53;101715.00;;;42.10
71463;BMP180;59266;52.608;13.260;2023-07-08T09:39:52;101714.00;;;43.40
71463;BMP180;59266;52.608;13.260;2023-07-08T09:42:21;101716.00;;;42.40
71463;BMP180;59266;52.608;13.260;2023-07-08T09:44:48;101712.00;;;42.90
71463;BMP180;59266;52.608;13.260;2023-07-08T09:47:22;101714.00;;;42.50
71463;BMP180;59266;52.608;13.260;2023-07-08T09:49:52;101718.00;;;41.80
71463;BMP180;59266;52.608;13.260;2023-07-08T09:52:19;101720.00;;;42.30
71463;BMP180;59266;52.608;13.260;2023-07-08T09:54:49;101717.00;;;42.00
71463;BMP180;59266;52.608;13.260;2023-07-08T09:57:25;101714.00;;;41.30
71463;BMP180;59266;52.608;13.260;2023-07-08T09:59:57;101718.00;;;41.50
71463;BMP180;59266;52.608;13.260;2023-07-08T10:02:28;101709.00;;;40.40
71463;BMP180;59266;52.608;13.260;2023-07-08T10:05:03;101714.00;;;42.50
71463;BMP180;59266;52.608;13.260;2023-07-08T10:07:34;101711.00;;;41.90
71463;BMP180;59266;52.608;13.260;2023-07-08T10:10:06;101712.00;;;41.30
71463;BMP180;59266;52.608;13.260;2023-07-08T10:12:35;101708.00;;;41.70
71463;BMP180;59266;52.608;13.260;2023-07-08T10:15:24;101710.00;;;40.60
71463;BMP180;59266;52.608;13.260;2023-07-08T10:17:54;101710.00;;;41.30
71463;BMP180;59266;52.608;13.260;2023-07-08T10:20:21;101711.00;;;40.40
71463;BMP180;59266;52.608;13.260;2023-07-08T10:23:12;101708.00;;;40.80
71463;BMP180;59266;52.608;13.260;2023-07-08T10:25:46;101708.00;;;40.80
71463;BMP180;59266;52.608;13.260;2023-07-08T10:28:33;101706.00;;;40.80
71463;BMP180;59266;52.608;13.260;2023-07-08T10:31:25;101708.00;;;39.60
71463;BMP180;59266;52.608;13.260;2023-07-08T10:34:10;101705.00;;;39.60
71463;BMP180;59266;52.608;13.260;2023-07-08T10:36:52;101709.00;;;39.00
71463;BMP180;59266;52.608;13.260;2023-07-08T10:39:29;101702.00;;;39.20
71463;BMP180;59266;52.608;13.260;2023-07-08T10:42:21;101704.00;;;40.60
71463;BMP180;59266;52.608;13.260;2023-07-08T10:45:13;101710.00;;;39.20
71463;BMP180;59266;52.608;13.260;2023-07-08T10:48:01;101708.00;;;39.10
71463;BMP180;59266;52.608;13.260;2023-07-08T10:51:14;101701.00;;;39.20
71463;BMP180;59266;52.608;13.260;2023-07-08T10:54:00;101698.00;;;40.30
71463;BMP180;59266;52.608;13.260;2023-07-08T10:56:45;101702.00;;;41.00
71463;BMP180;59266;52.608;13.260;2023-07-08T10:59:41;101704.00;;;41.10
71463;BMP180;59266;52.608;13.260;2023-07-08T11:02:52;101700.00;;;39.10
71463;BMP180;59266;52.608;13.260;2023-07-08T11:08:32;101697.00;;;40.40
71463;BMP180;59266;52.608;13.260;2023-07-08T11:11:29;101704.00;;;38.60
71463;BMP180;59266;52.608;13.260;2023-07-08T11:14:05;101693.00;;;39.60
71463;BMP180;59266;52.608;13.260;2023-07-08T11:16:45;101693.00;;;40.60
71463;BMP180;59266;52.608;13.260;2023-07-08T11:19:26;101695.00;;;39.80
71463;BMP180;59266;52.608;13.260;2023-07-08T11:21:59;101689.00;;;39.80
71463;BMP180;59266;52.608;13.260;2023-07-08T11:24:44;101695.00;;;38.90
71463;BMP180;59266;52.608;13.260;2023-07-08T11:27:32;101695.00;;;38.50
71463;BMP180;59266;52.608;13.260;2023-07-08T11:30:13;101690.00;;;39.40
71463;BMP180;59266;52.608;13.260;2023-07-08T11:32:42;101683.00;;;38.90
71463;BMP180;59266;52.608;13.260;2023-07-08T11:35:33;101679.00;;;39.20
71463;BMP180;59266;52.608;13.260;2023-07-08T11:38:01;101673.00;;;38.60
71463;BMP180;59266;52.608;13.260;2023-07-08T11:40:32;101669.00;;;37.90
71463;BMP180;59266;52.608;13.260;2023-07-08T11:43:06;101675.00;;;38.30
71463;BMP180;59266;52.608;13.260;2023-07-08T11:45:37;101672.00;;;37.80
71463;BMP180;59266;52.608;13.260;2023-07-08T11:50:38;101672.00;;;37.30
71463;BMP180;59266;52.608;13.260;2023-07-08T11:53:08;101671.00;;;38.10
71463;BMP180;59266;52.608;13.260;2023-07-08T11:58:26;101663.00;;;37.70
71463;BMP180;59266;52.608;13.260;2023-07-08T12:01:03;101656.00;;;38.30
71463;BMP180;59266;52.608;13.260;2023-07-08T12:03:39;101660.00;;;37.50
71463;BMP180;59266;52.608;13.260;2023-07-08T12:09:22;101653.00;;;39.10
71463;BMP180;59266;52.608;13.260;2023-07-08T12:11:55;101653.00;;;38.80
71463;BMP180;59266;52.608;13.260;2023-07-08T12:14:25;101648.00;;;38.70
71463;BMP180;59266;52.608;13.260;2023-07-08T12:16:56;101648.00;;;38.40
71463;BMP180;59266;52.608;13.260;2023-07-08T12:19:25;101644.00;;;38.50
71463;BMP180;59266;52.608;13.260;2023-07-08T12:22:00;101651.00;;;38.80
71463;BMP180;59266;52.608;13.260;2023-07-08T12:24:27;101643.00;;;38.70
71463;BMP180;59266;52.608;13.260;2023-07-08T12:26:54;101647.00;;;38.30
71463;BMP180;59266;52.608;13.260;2023-07-08T12:29:22;101649.00;;;37.90
71463;BMP180;59266;52.608;13.260;2023-07-08T12:31:52;101640.00;;;36.50
71463;BMP180;59266;52.608;13.260;2023-07-08T12:34:19;101642.00;;;37.30
71463;BMP180;59266;52.608;13.260;2023-07-08T12:36:47;101633.00;;;37.50
71463;BMP180;59266;52.608;13.260;2023-07-08T12:39:16;101629.00;;;38.30
71463;BMP180;59266;52.608;13.260;2023-07-08T12:41:46;101631.00;;;39.00
71463;BMP180;59266;52.608;13.260;2023-07-08T12:44:18;101631.00;;;39.10
71463;BMP180;59266;52.608;13.260;2023-07-08T12:46:48;101629.00;;;39.20
71463;BMP180;59266;52.608;13.260;2023-07-08T12:49:15;101624.00;;;37.90
71463;BMP180;59266;52.608;13.260;2023-07-08T12:51:44;101625.00;;;38.60
71463;BMP180;59266;52.608;13.260;2023-07-08T12:54:11;101625.00;;;38.10
71463;BMP180;59266;52.608;13.260;2023-07-08T12:56:40;101630.00;;;39.40
71463;BMP180;59266;52.608;13.260;2023-07-08T12:59:08;101630.00;;;39.70
71463;BMP180;59266;52.608;13.260;2023-07-08T13:01:39;101621.00;;;38.70
71463;BMP180;59266;52.608;13.260;2023-07-08T13:04:10;101629.00;;;38.80
71463;BMP180;59266;52.608;13.260;2023-07-08T13:06:40;101623.00;;;38.50
71463;BMP180;59266;52.608;13.260;2023-07-08T13:09:24;101625.00;;;38.40
71463;BMP180;59266;52.608;13.260;2023-07-08T13:12:10;101620.00;;;38.20
71463;BMP180;59266;52.608;13.260;2023-07-08T13:14:39;101619.00;;;38.30
71463;BMP180;59266;52.608;13.260;2023-07-08T13:17:13;101618.00;;;38.60
71463;BMP180;59266;52.608;13.260;2023-07-08T13:19:42;101617.00;;;37.10
71463;BMP180;59266;52.608;13.260;2023-07-08T13:22:17;101606.00;;;37.40
71463;BMP180;59266;52.608;13.260;2023-07-08T13:24:46;101613.00;;;37.70
71463;BMP180;59266;52.608;13.260;2023-07-08T13:27:22;101603.00;;;38.00
71463;BMP180;59266;52.608;13.260;2023-07-08T13:29:54;101599.00;;;38.40
71463;BMP180;59266;52.608;13.260;2023-07-08T13:32:30;101606.00;;;39.40
71463;BMP180;59266;52.608;13.260;2023-07-08T13:34:57;101602.00;;;39.20
71463;BMP180;59266;52.608;13.260;2023-07-08T13:37:26;101614.00;;;40.20
71463;BMP180;59266;52.608;13.260;2023-07-08T13:39:54;101604.00;;;39.00
71463;BMP180;59266;52.608;13.260;2023-07-08T13:42:22;101606.00;;;38.60
71463;BMP180;59266;52.608;13.260;2023-07-08T13:44:49;101596.00;;;38.20
71463;BMP180;59266;52.608;13.260;2023-07-08T13:47:36;101600.00;;;38.30
71463;BMP180;59266;52.608;13.260;2023-07-08T13:50:29;101598.00;;;38.30
71463;BMP180;59266;52.608;13.260;2023-07-08T13:52:57;101597.00;;;39.30
71463;BMP180;59266;52.608;13.260;2023-07-08T13:55:25;101604.00;;;39.00
71463;BMP180;59266;52.608;13.260;2023-07-08T13:58:01;101595.00;;;38.50
71463;BMP180;59266;52.608;13.260;2023-07-08T14:00:30;101599.00;;;38.60
71463;BMP180;59266;52.608;13.260;2023-07-08T14:02:59;101596.00;;;38.50
71463;BMP180;59266;52.608;13.260;2023-07-08T14:05:26;101602.00;;;37.90
71463;BMP180;59266;52.608;13.260;2023-07-08T14:07:52;101600.00;;;38.30
71463;BMP180;59266;52.608;13.260;2023-07-08T14:10:19;101599.00;;;37.30
71463;BMP180;59266;52.608;13.260;2023-07-08T14:12:46;101601.00;;;37.60
71463;BMP180;59266;52.608;13.260;2023-07-08T14:15:12;101599.00;;;37.60
71463;BMP180;59266;52.608;13.260;2023-07-08T14:17:39;101604.00;;;37.80
71463;BMP180;59266;52.608;13.260;2023-07-08T14:20:16;101597.00;;;38.00
71463;BMP180;59266;52.608;13.260;2023-07-08T14:22:45;101600.00;;;37.70
71463;BMP180;59266;52.608;13.260;2023-07-08T14:25:14;101602.00;;;37.50
71463;BMP180;59266;52.608;13.260;2023-07-08T14:27:42;101591.00;;;37.40